sensor_id;sensor_type;location;lat;lon;timestamp;temperature;humidity
38848;DHT22;24602;44.780;20.408;2022-09-12T00:02:19;18.00;99.90
38848;DHT22;24602;44.780;20.408;2022-09-12T00:04:51;17.90;99.90
38848;DHT22;24602;44.780;20.408;2022-09-12T00:07:22;17.90;99.90
38848;DHT22;24602;44.780;20.408;2022-09-12T00:09:58;17.80;99.90
38848;DHT22;24602;44.780;20.408;2022-09-12T00:12:32;17.70;99.90
38848;DHT22;24602;44.780;20.408;2022-09-12T00:15:03;17.70;99.90
38848;DHT22;24602;44.780;20.408;2022-09-12T00:17:35;17.60;99.90
38848;DHT22;24602;44.780;20.408;2022-09-12T00:20:07;17.60;99.90
38848;DHT22;24602;44.780;20.408;2022-09-12T00:22:36;17.60;99.90
38848;DHT22;24602;44.780;20.408;2022-09-12T00:25:06;17.60;99.90
38848;DHT22;24602;44.780;20.408;2022-09-12T00:27:37;17.60;99.90
38848;DHT22;24602;44.780;20.408;2022-09-12T00:30:12;17.60;99.90
38848;DHT22;24602;44.780;20.408;2022-09-12T00:32:42;17.50;99.90
38848;DHT22;24602;44.780;20.408;2022-09-12T00:35:11;17.50;99.90
38848;DHT22;24602;44.780;20.408;2022-09-12T00:37:40;17.50;99.90
38848;DHT22;24602;44.780;20.408;2022-09-12T00:40:15;17.50;99.90
38848;DHT22;24602;44.780;20.408;2022-09-12T00:42:47;17.50;99.90
38848;DHT22;24602;44.780;20.408;2022-09-12T00:45:26;17.60;99.90
38848;DHT22;24602;44.780;20.408;2022-09-12T00:48:02;17.70;99.90
38848;DHT22;24602;44.780;20.408;2022-09-12T00:50:33;17.70;99.90
38848;DHT22;24602;44.780;20.408;2022-09-12T00:53:25;17.70;99.90
38848;DHT22;24602;44.780;20.408;2022-09-12T00:55:53;17.70;99.90
38848;DHT22;24602;44.780;20.408;2022-09-12T00:58:47;17.70;99.90
38848;DHT22;24602;44.780;20.408;2022-09-12T01:01:33;17.60;99.90
38848;DHT22;24602;44.780;20.408;2022-09-12T01:04:06;17.70;99.90
38848;DHT22;24602;44.780;20.408;2022-09-12T01:06:40;17.70;99.90
38848;DHT22;24602;44.780;20.408;2022-09-12T01:09:20;17.70;99.90
38848;DHT22;24602;44.780;20.408;2022-09-12T01:11:50;17.60;99.90
38848;DHT22;24602;44.780;20.408;2022-09-12T01:14:25;17.60;99.90
38848;DHT22;24602;44.780;20.408;2022-09-12T01:16:54;17.60;99.90
38848;DHT22;24602;44.780;20.408;2022-09-12T01:34:53;17.30;99.90
38848;DHT22;24602;44.780;20.408;2022-09-12T01:37:52;17.30;99.90
38848;DHT22;24602;44.780;20.408;2022-09-12T01:49:41;17.10;99.90
38848;DHT22;24602;44.780;20.408;2022-09-12T01:52:21;17.10;99.90
38848;DHT22;24602;44.780;20.408;2022-09-12T02:03:31;17.00;99.90
38848;DHT22;24602;44.780;20.408;2022-09-12T02:06:05;17.10;99.90
38848;DHT22;24602;44.780;20.408;2022-09-12T02:08:40;17.10;99.90
38848;DHT22;24602;44.780;20.408;2022-09-12T02:11:18;17.10;99.90
38848;DHT22;24602;44.780;20.408;2022-09-12T02:14:11;17.00;99.90
38848;DHT22;24602;44.780;20.408;2022-09-12T02:16:52;17.00;99.90
38848;DHT22;24602;44.780;20.408;2022-09-12T02:19:31;16.90;99.90
38848;DHT22;24602;44.780;20.408;2022-09-12T02:22:05;16.90;99.90
38848;DHT22;24602;44.780;20.408;2022-09-12T02:24:42;16.90;99.90
38848;DHT22;24602;44.780;20.408;2022-09-12T02:27:59;16.90;99.90
38848;DHT22;24602;44.780;20.408;2022-09-12T02:30:17;16.90;99.90
38848;DHT22;24602;44.780;20.408;2022-09-12T02:33:01;16.80;99.90
38848;DHT22;24602;44.780;20.408;2022-09-12T02:36:24;16.80;99.90
38848;DHT22;24602;44.780;20.408;2022-09-12T02:39:04;16.80;99.90
38848;DHT22;24602;44.780;20.408;2022-09-12T02:41:32;16.80;99.90
38848;DHT22;24602;44.780;20.408;2022-09-12T02:44:03;16.80;99.90
38848;DHT22;24602;44.780;20.408;2022-09-12T02:46:43;16.70;99.90
38848;DHT22;24602;44.780;20.408;2022-09-12T02:49:15;16.60;99.90
38848;DHT22;24602;44.780;20.408;2022-09-12T02:51:49;16.60;99.90
38848;DHT22;24602;44.780;20.408;2022-09-12T02:54:24;16.60;99.90
38848;DHT22;24602;44.780;20.408;2022-09-12T02:56:59;16.70;99.90
38848;DHT22;24602;44.780;20.408;2022-09-12T02:59:30;16.70;99.90
38848;DHT22;24602;44.780;20.408;2022-09-12T03:20:59;16.40;99.90
38848;DHT22;24602;44.780;20.408;2022-09-12T03:23:25;16.50;99.90
38848;DHT22;24602;44.780;20.408;2022-09-12T03:26:20;16.40;99.90
38848;DHT22;24602;44.780;20.408;2022-09-12T03:28:55;16.30;99.90
38848;DHT22;24602;44.780;20.408;2022-09-12T03:31:27;16.30;99.90
38848;DHT22;24602;44.780;20.408;2022-09-12T03:34:03;16.30;99.90
38848;DHT22;24602;44.780;20.408;2022-09-12T03:36:32;16.20;99.90
38848;DHT22;24602;44.780;20.408;2022-09-12T03:39:01;16.20;99.90
38848;DHT22;24602;44.780;20.408;2022-09-12T03:41:31;16.10;99.90
38848;DHT22;24602;44.780;20.408;2022-09-12T03:44:00;16.10;99.90
38848;DHT22;24602;44.780;20.408;2022-09-12T03:46:32;16.20;99.90
38848;DHT22;24602;44.780;20.408;2022-09-12T03:49:02;16.30;99.90
38848;DHT22;24602;44.780;20.408;2022-09-12T03:51:44;16.20;99.90
38848;DHT22;24602;44.780;20.408;2022-09-12T03:54:15;16.10;99.90
38848;DHT22;24602;44.780;20.408;2022-09-12T03:56:44;16.20;99.90
38848;DHT22;24602;44.780;20.408;2022-09-12T03:59:15;16.10;99.90
38848;DHT22;24602;44.780;20.408;2022-09-12T04:01:43;16.10;99.90
38848;DHT22;24602;44.780;20.408;2022-09-12T04:04:12;16.10;99.90
38848;DHT22;24602;44.780;20.408;2022-09-12T04:06:42;16.10;99.90
38848;DHT22;24602;44.780;20.408;2022-09-12T04:09:14;16.00;99.90
38848;DHT22;24602;44.780;20.408;2022-09-12T04:11:47;16.00;99.90
38848;DHT22;24602;44.780;20.408;2022-09-12T04:14:19;16.00;99.90
38848;DHT22;24602;44.780;20.408;2022-09-12T04:16:50;15.90;99.90
38848;DHT22;24602;44.780;20.408;2022-09-12T04:19:20;15.90;99.90
38848;DHT22;24602;44.780;20.408;2022-09-12T04:21:52;15.90;99.90
38848;DHT22;24602;44.780;20.408;2022-09-12T04:24:23;15.90;99.90
38848;DHT22;24602;44.780;20.408;2022-09-12T04:26:52;15.90;99.90
38848;DHT22;24602;44.780;20.408;2022-09-12T04:29:23;15.90;99.90
38848;DHT22;24602;44.780;20.408;2022-09-12T04:31:55;15.80;99.90
38848;DHT22;24602;44.780;20.408;2022-09-12T04:34:25;15.80;99.90
38848;DHT22;24602;44.780;20.408;2022-09-12T04:36:56;15.80;99.90
38848;DHT22;24602;44.780;20.408;2022-09-12T04:39:27;15.80;99.90
38848;DHT22;24602;44.780;20.408;2022-09-12T04:41:58;15.90;99.90
38848;DHT22;24602;44.780;20.408;2022-09-12T04:44:29;15.80;99.90
38848;DHT22;24602;44.780;20.408;2022-09-12T04:47:00;15.80;99.90
38848;DHT22;24602;44.780;20.408;2022-09-12T04:49:32;15.80;99.90
38848;DHT22;24602;44.780;20.408;2022-09-12T04:52:02;15.80;99.90
38848;DHT22;24602;44.780;20.408;2022-09-12T04:54:33;15.80;99.90
38848;DHT22;24602;44.780;20.408;2022-09-12T04:57:03;15.80;99.90
38848;DHT22;24602;44.780;20.408;2022-09-12T04:59:32;15.80;99.90
38848;DHT22;24602;44.780;20.408;2022-09-12T05:02:04;15.80;99.90
38848;DHT22;24602;44.780;20.408;2022-09-12T05:04:33;15.90;99.90
38848;DHT22;24602;44.780;20.408;2022-09-12T05:07:03;15.80;99.90
38848;DHT22;24602;44.780;20.408;2022-09-12T05:09:35;15.80;99.90
38848;DHT22;24602;44.780;20.408;2022-09-12T05:12:03;15.80;99.90
38848;DHT22;24602;44.780;20.408;2022-09-12T05:14:33;15.80;99.90
38848;DHT22;24602;44.780;20.408;2022-09-12T05:17:03;15.90;99.90
38848;DHT22;24602;44.780;20.408;2022-09-12T05:19:34;15.80;99.90
38848;DHT22;24602;44.780;20.408;2022-09-12T05:22:04;15.70;99.90
38848;DHT22;24602;44.780;20.408;2022-09-12T05:24:39;15.70;99.90
38848;DHT22;24602;44.780;20.408;2022-09-12T05:27:18;15.80;99.90
38848;DHT22;24602;44.780;20.408;2022-09-12T05:29:48;15.80;99.90
38848;DHT22;24602;44.780;20.408;2022-09-12T05:32:19;15.80;99.90
38848;DHT22;24602;44.780;20.408;2022-09-12T05:34:47;15.80;99.90
38848;DHT22;24602;44.780;20.408;2022-09-12T05:37:30;15.80;99.90
38848;DHT22;24602;44.780;20.408;2022-09-12T05:39:59;15.90;99.90
38848;DHT22;24602;44.780;20.408;2022-09-12T05:42:29;16.00;99.90
38848;DHT22;24602;44.780;20.408;2022-09-12T05:45:02;16.00;99.90
38848;DHT22;24602;44.780;20.408;2022-09-12T05:47:31;15.90;99.90
38848;DHT22;24602;44.780;20.408;2022-09-12T05:50:04;15.90;99.90
38848;DHT22;24602;44.780;20.408;2022-09-12T05:52:38;15.90;99.90
38848;DHT22;24602;44.780;20.408;2022-09-12T05:55:06;16.00;99.90
38848;DHT22;24602;44.780;20.408;2022-09-12T05:57:38;16.00;99.90
38848;DHT22;24602;44.780;20.408;2022-09-12T06:00:08;16.10;99.90
38848;DHT22;24602;44.780;20.408;2022-09-12T06:02:38;16.10;99.90
38848;DHT22;24602;44.780;20.408;2022-09-12T06:05:07;16.10;99.90
38848;DHT22;24602;44.780;20.408;2022-09-12T06:07:46;16.20;99.90
38848;DHT22;24602;44.780;20.408;2022-09-12T06:10:18;16.20;99.90
38848;DHT22;24602;44.780;20.408;2022-09-12T06:12:49;16.20;99.90
38848;DHT22;24602;44.780;20.408;2022-09-12T06:15:19;16.30;99.90
38848;DHT22;24602;44.780;20.408;2022-09-12T06:17:47;16.30;99.90
38848;DHT22;24602;44.780;20.408;2022-09-12T06:20:19;16.30;99.90
38848;DHT22;24602;44.780;20.408;2022-09-12T06:22:52;16.40;99.90
38848;DHT22;24602;44.780;20.408;2022-09-12T06:25:23;16.50;99.90
38848;DHT22;24602;44.780;20.408;2022-09-12T06:27:53;16.60;99.90
38848;DHT22;24602;44.780;20.408;2022-09-12T06:30:22;16.60;99.90
38848;DHT22;24602;44.780;20.408;2022-09-12T06:32:52;16.60;99.90
38848;DHT22;24602;44.780;20.408;2022-09-12T06:35:27;16.60;99.90
38848;DHT22;24602;44.780;20.408;2022-09-12T06:37:57;16.80;99.90
38848;DHT22;24602;44.780;20.408;2022-09-12T06:40:32;16.80;99.90
38848;DHT22;24602;44.780;20.408;2022-09-12T06:43:03;16.80;99.90
38848;DHT22;24602;44.780;20.408;2022-09-12T06:45:33;16.90;99.90
38848;DHT22;24602;44.780;20.408;2022-09-12T06:48:04;16.90;99.90
38848;DHT22;24602;44.780;20.408;2022-09-12T06:50:33;16.90;99.90
38848;DHT22;24602;44.780;20.408;2022-09-12T06:53:03;17.00;99.90
38848;DHT22;24602;44.780;20.408;2022-09-12T06:55:33;17.00;99.90
38848;DHT22;24602;44.780;20.408;2022-09-12T06:58:03;17.00;99.90
38848;DHT22;24602;44.780;20.408;2022-09-12T07:00:37;17.00;99.90
38848;DHT22;24602;44.780;20.408;2022-09-12T07:03:07;17.10;99.90
38848;DHT22;24602;44.780;20.408;2022-09-12T07:05:37;17.10;99.90
38848;DHT22;24602;44.780;20.408;2022-09-12T07:08:07;17.10;99.90
38848;DHT22;24602;44.780;20.408;2022-09-12T07:10:37;17.20;99.90
38848;DHT22;24602;44.780;20.408;2022-09-12T07:13:05;17.20;99.90
38848;DHT22;24602;44.780;20.408;2022-09-12T07:15:37;17.40;99.90
38848;DHT22;24602;44.780;20.408;2022-09-12T07:18:10;17.40;99.90
38848;DHT22;24602;44.780;20.408;2022-09-12T07:20:40;17.50;99.90
38848;DHT22;24602;44.780;20.408;2022-09-12T07:23:09;17.50;99.90
38848;DHT22;24602;44.780;20.408;2022-09-12T07:25:40;17.50;99.90
38848;DHT22;24602;44.780;20.408;2022-09-12T07:28:12;17.60;99.90
38848;DHT22;24602;44.780;20.408;2022-09-12T07:30:43;17.70;99.90
38848;DHT22;24602;44.780;20.408;2022-09-12T07:33:15;17.70;99.90
38848;DHT22;24602;44.780;20.408;2022-09-12T07:35:42;17.90;99.90
38848;DHT22;24602;44.780;20.408;2022-09-12T07:38:15;18.00;99.90
38848;DHT22;24602;44.780;20.408;2022-09-12T07:40:43;18.20;99.90
38848;DHT22;24602;44.780;20.408;2022-09-12T07:43:13;18.30;99.90
38848;DHT22;24602;44.780;20.408;2022-09-12T07:45:43;18.20;99.90
38848;DHT22;24602;44.780;20.408;2022-09-12T07:48:15;18.20;99.90
38848;DHT22;24602;44.780;20.408;2022-09-12T07:50:46;18.20;99.90
38848;DHT22;24602;44.780;20.408;2022-09-12T07:53:16;18.00;99.90
38848;DHT22;24602;44.780;20.408;2022-09-12T07:55:54;18.00;99.90
38848;DHT22;24602;44.780;20.408;2022-09-12T07:58:29;18.10;99.90
38848;DHT22;24602;44.780;20.408;2022-09-12T08:01:25;18.10;99.90
38848;DHT22;24602;44.780;20.408;2022-09-12T08:03:58;18.10;99.90
38848;DHT22;24602;44.780;20.408;2022-09-12T08:06:30;18.20;99.90
38848;DHT22;24602;44.780;20.408;2022-09-12T08:09:03;18.30;99.90
38848;DHT22;24602;44.780;20.408;2022-09-12T08:11:30;18.40;99.90
38848;DHT22;24602;44.780;20.408;2022-09-12T08:13:59;18.40;99.90
38848;DHT22;24602;44.780;20.408;2022-09-12T08:16:31;18.50;99.90
38848;DHT22;24602;44.780;20.408;2022-09-12T08:19:02;18.40;99.90
38848;DHT22;24602;44.780;20.408;2022-09-12T08:21:34;18.40;99.90
38848;DHT22;24602;44.780;20.408;2022-09-12T08:24:05;18.40;99.90
38848;DHT22;24602;44.780;20.408;2022-09-12T08:26:36;18.60;99.90
38848;DHT22;24602;44.780;20.408;2022-09-12T08:29:09;18.60;99.90
38848;DHT22;24602;44.780;20.408;2022-09-12T08:31:42;18.60;99.90
38848;DHT22;24602;44.780;20.408;2022-09-12T08:34:12;18.70;99.90
38848;DHT22;24602;44.780;20.408;2022-09-12T08:36:55;18.70;99.90
38848;DHT22;24602;44.780;20.408;2022-09-12T08:39:25;18.60;99.90
38848;DHT22;24602;44.780;20.408;2022-09-12T08:42:00;18.60;99.90
38848;DHT22;24602;44.780;20.408;2022-09-12T08:45:04;18.60;99.90
38848;DHT22;24602;44.780;20.408;2022-09-12T08:47:46;18.70;99.90
38848;DHT22;24602;44.780;20.408;2022-09-12T08:50:18;18.80;99.90
38848;DHT22;24602;44.780;20.408;2022-09-12T08:55:54;19.00;99.90
38848;DHT22;24602;44.780;20.408;2022-09-12T08:58:28;19.10;99.90
38848;DHT22;24602;44.780;20.408;2022-09-12T09:07:32;19.10;99.90
38848;DHT22;24602;44.780;20.408;2022-09-12T09:16:02;19.40;99.90
38848;DHT22;24602;44.780;20.408;2022-09-12T09:18:42;19.50;99.90
38848;DHT22;24602;44.780;20.408;2022-09-12T09:21:51;19.60;99.90
38848;DHT22;24602;44.780;20.408;2022-09-12T09:24:27;19.70;99.90
38848;DHT22;24602;44.780;20.408;2022-09-12T09:30:16;19.90;99.90
38848;DHT22;24602;44.780;20.408;2022-09-12T09:32:55;20.10;99.90
38848;DHT22;24602;44.780;20.408;2022-09-12T09:35:43;20.10;99.90
38848;DHT22;24602;44.780;20.408;2022-09-12T09:38:48;20.10;99.90
38848;DHT22;24602;44.780;20.408;2022-09-12T09:44:13;20.20;99.90
38848;DHT22;24602;44.780;20.408;2022-09-12T09:46:42;20.20;99.90
38848;DHT22;24602;44.780;20.408;2022-09-12T09:49:13;20.20;99.90
38848;DHT22;24602;44.780;20.408;2022-09-12T09:51:43;20.40;99.90
38848;DHT22;24602;44.780;20.408;2022-09-12T09:54:27;20.40;99.90
38848;DHT22;24602;44.780;20.408;2022-09-12T09:56:59;20.30;99.90
38848;DHT22;24602;44.780;20.408;2022-09-12T09:59:32;20.30;99.90
38848;DHT22;24602;44.780;20.408;2022-09-12T10:02:20;20.40;99.90
38848;DHT22;24602;44.780;20.408;2022-09-12T10:04:59;20.40;99.90
38848;DHT22;24602;44.780;20.408;2022-09-12T10:07:28;20.40;99.90
38848;DHT22;24602;44.780;20.408;2022-09-12T10:10:17;20.40;99.90
38848;DHT22;24602;44.780;20.408;2022-09-12T10:13:07;20.40;99.90
38848;DHT22;24602;44.780;20.408;2022-09-12T10:15:36;20.50;99.90
38848;DHT22;24602;44.780;20.408;2022-09-12T10:18:07;20.60;99.90
38848;DHT22;24602;44.780;20.408;2022-09-12T10:20:44;20.60;99.90
38848;DHT22;24602;44.780;20.408;2022-09-12T10:23:32;20.60;99.90
38848;DHT22;24602;44.780;20.408;2022-09-12T10:26:14;20.60;99.90
38848;DHT22;24602;44.780;20.408;2022-09-12T10:28:50;20.50;99.90
38848;DHT22;24602;44.780;20.408;2022-09-12T10:31:42;20.60;99.90
38848;DHT22;24602;44.780;20.408;2022-09-12T10:34:26;20.60;99.90
38848;DHT22;24602;44.780;20.408;2022-09-12T10:37:09;20.70;99.90
38848;DHT22;24602;44.780;20.408;2022-09-12T10:39:54;20.80;99.90
38848;DHT22;24602;44.780;20.408;2022-09-12T10:42:47;20.90;99.90
38848;DHT22;24602;44.780;20.408;2022-09-12T10:45:32;20.90;99.90
38848;DHT22;24602;44.780;20.408;2022-09-12T10:50:59;21.00;99.90
38848;DHT22;24602;44.780;20.408;2022-09-12T10:53:49;20.90;99.90
38848;DHT22;24602;44.780;20.408;2022-09-12T10:56:35;21.00;99.90
38848;DHT22;24602;44.780;20.408;2022-09-12T11:02:28;20.70;99.40
38848;DHT22;24602;44.780;20.408;2022-09-12T11:11:55;21.00;99.00
38848;DHT22;24602;44.780;20.408;2022-09-12T11:17:52;21.20;98.70
38848;DHT22;24602;44.780;20.408;2022-09-12T11:32:54;21.40;97.50
38848;DHT22;24602;44.780;20.408;2022-09-12T11:35:48;21.50;97.60
38848;DHT22;24602;44.780;20.408;2022-09-12T11:38:51;21.60;97.40
38848;DHT22;24602;44.780;20.408;2022-09-12T11:41:35;21.60;97.20
38848;DHT22;24602;44.780;20.408;2022-09-12T11:46:42;21.60;97.50
38848;DHT22;24602;44.780;20.408;2022-09-12T11:49:32;21.50;97.00
38848;DHT22;24602;44.780;20.408;2022-09-12T11:52:22;21.60;97.70
38848;DHT22;24602;44.780;20.408;2022-09-12T11:55:28;21.80;97.20
38848;DHT22;24602;44.780;20.408;2022-09-12T11:57:59;22.00;96.40
38848;DHT22;24602;44.780;20.408;2022-09-12T12:00:46;22.00;96.40
38848;DHT22;24602;44.780;20.408;2022-09-12T12:03:41;22.10;96.70
38848;DHT22;24602;44.780;20.408;2022-09-12T12:06:46;22.00;96.20
38848;DHT22;24602;44.780;20.408;2022-09-12T12:09:17;21.90;96.20
38848;DHT22;24602;44.780;20.408;2022-09-12T12:11:52;21.60;97.00
38848;DHT22;24602;44.780;20.408;2022-09-12T12:14:36;21.60;97.00
38848;DHT22;24602;44.780;20.408;2022-09-12T12:17:19;21.50;97.30
38848;DHT22;24602;44.780;20.408;2022-09-12T12:20:03;21.70;97.30
38848;DHT22;24602;44.780;20.408;2022-09-12T12:22:36;21.90;96.90
38848;DHT22;24602;44.780;20.408;2022-09-12T12:27:53;22.50;95.90
38848;DHT22;24602;44.780;20.408;2022-09-12T12:36:02;22.40;95.50
38848;DHT22;24602;44.780;20.408;2022-09-12T12:38:35;22.50;94.90
38848;DHT22;24602;44.780;20.408;2022-09-12T12:43:54;22.80;94.30
38848;DHT22;24602;44.780;20.408;2022-09-12T12:46:29;22.60;94.60
38848;DHT22;24602;44.780;20.408;2022-09-12T12:51:58;22.30;93.80
38848;DHT22;24602;44.780;20.408;2022-09-12T12:57:31;22.00;94.80
38848;DHT22;24602;44.780;20.408;2022-09-12T13:00:58;21.90;94.50
38848;DHT22;24602;44.780;20.408;2022-09-12T13:03:26;21.90;94.10
38848;DHT22;24602;44.780;20.408;2022-09-12T13:06:00;22.40;93.70
38848;DHT22;24602;44.780;20.408;2022-09-12T13:08:38;24.80;89.40
38848;DHT22;24602;44.780;20.408;2022-09-12T13:11:14;24.80;86.10
38848;DHT22;24602;44.780;20.408;2022-09-12T13:14:06;24.30;86.90
38848;DHT22;24602;44.780;20.408;2022-09-12T13:16:57;23.70;88.20
38848;DHT22;24602;44.780;20.408;2022-09-12T13:19:35;25.30;85.40
38848;DHT22;24602;44.780;20.408;2022-09-12T13:22:07;27.80;76.50
38848;DHT22;24602;44.780;20.408;2022-09-12T13:24:45;27.60;71.20
38848;DHT22;24602;44.780;20.408;2022-09-12T13:27:25;26.20;72.70
38848;DHT22;24602;44.780;20.408;2022-09-12T13:30:13;25.10;77.10
38848;DHT22;24602;44.780;20.408;2022-09-12T13:32:43;24.20;80.50
38848;DHT22;24602;44.780;20.408;2022-09-12T13:35:41;23.60;82.10
38848;DHT22;24602;44.780;20.408;2022-09-12T13:38:19;23.10;83.70
38848;DHT22;24602;44.780;20.408;2022-09-12T13:41:20;22.90;85.10
38848;DHT22;24602;44.780;20.408;2022-09-12T13:44:11;22.90;86.50
38848;DHT22;24602;44.780;20.408;2022-09-12T13:47:01;23.90;86.50
38848;DHT22;24602;44.780;20.408;2022-09-12T13:49:36;27.20;74.40
38848;DHT22;24602;44.780;20.408;2022-09-12T13:52:27;28.10;69.00
38848;DHT22;24602;44.780;20.408;2022-09-12T13:55:01;27.80;67.70
38848;DHT22;24602;44.780;20.408;2022-09-12T13:57:56;27.10;68.80
38848;DHT22;24602;44.780;20.408;2022-09-12T14:00:27;26.30;69.90
38848;DHT22;24602;44.780;20.408;2022-09-12T14:03:08;25.60;72.30
38848;DHT22;24602;44.780;20.408;2022-09-12T14:06:01;25.00;75.00
38848;DHT22;24602;44.780;20.408;2022-09-12T14:08:31;24.20;78.20
38848;DHT22;24602;44.780;20.408;2022-09-12T14:11:10;23.60;80.90
38848;DHT22;24602;44.780;20.408;2022-09-12T14:13:38;23.30;82.10
38848;DHT22;24602;44.780;20.408;2022-09-12T14:16:09;23.20;83.30
38848;DHT22;24602;44.780;20.408;2022-09-12T14:18:39;23.00;84.00
38848;DHT22;24602;44.780;20.408;2022-09-12T14:21:37;23.10;84.30
38848;DHT22;24602;44.780;20.408;2022-09-12T14:24:10;24.60;82.40
38848;DHT22;24602;44.780;20.408;2022-09-12T14:26:42;25.70;74.20
38848;DHT22;24602;44.780;20.408;2022-09-12T14:29:14;25.80;72.20
38848;DHT22;24602;44.780;20.408;2022-09-12T14:31:46;25.40;72.40
38848;DHT22;24602;44.780;20.408;2022-09-12T14:34:20;24.90;74.00
38848;DHT22;24602;44.780;20.408;2022-09-12T14:36:53;24.50;74.70
38848;DHT22;24602;44.780;20.408;2022-09-12T14:39:42;23.80;77.30
38848;DHT22;24602;44.780;20.408;2022-09-12T14:42:17;23.50;78.00
38848;DHT22;24602;44.780;20.408;2022-09-12T14:45:14;23.30;79.70
38848;DHT22;24602;44.780;20.408;2022-09-12T14:47:49;23.10;80.20
38848;DHT22;24602;44.780;20.408;2022-09-12T14:50:22;23.00;81.30
38848;DHT22;24602;44.780;20.408;2022-09-12T14:53:25;23.00;81.80
38848;DHT22;24602;44.780;20.408;2022-09-12T14:56:04;23.20;82.60
38848;DHT22;24602;44.780;20.408;2022-09-12T14:58:42;23.70;81.80
38848;DHT22;24602;44.780;20.408;2022-09-12T15:06:30;25.80;73.40
38848;DHT22;24602;44.780;20.408;2022-09-12T15:09:14;26.70;69.90
38848;DHT22;24602;44.780;20.408;2022-09-12T15:11:43;26.50;69.30
38848;DHT22;24602;44.780;20.408;2022-09-12T15:14:16;26.30;69.50
38848;DHT22;24602;44.780;20.408;2022-09-12T15:16:46;26.00;70.10
38848;DHT22;24602;44.780;20.408;2022-09-12T15:19:16;25.60;70.40
38848;DHT22;24602;44.780;20.408;2022-09-12T15:21:47;25.30;71.10
38848;DHT22;24602;44.780;20.408;2022-09-12T15:24:21;25.20;71.70
38848;DHT22;24602;44.780;20.408;2022-09-12T15:26:54;24.70;73.30
38848;DHT22;24602;44.780;20.408;2022-09-12T15:29:27;24.30;74.90
38848;DHT22;24602;44.780;20.408;2022-09-12T15:31:59;24.10;76.40
38848;DHT22;24602;44.780;20.408;2022-09-12T15:34:32;23.90;78.20
38848;DHT22;24602;44.780;20.408;2022-09-12T15:37:01;23.50;77.70
38848;DHT22;24602;44.780;20.408;2022-09-12T15:39:34;23.30;79.30
38848;DHT22;24602;44.780;20.408;2022-09-12T15:42:04;23.10;80.30
38848;DHT22;24602;44.780;20.408;2022-09-12T15:44:36;23.30;78.90
38848;DHT22;24602;44.780;20.408;2022-09-12T15:47:15;23.40;78.80
38848;DHT22;24602;44.780;20.408;2022-09-12T15:49:44;23.60;79.00
38848;DHT22;24602;44.780;20.408;2022-09-12T15:52:15;23.60;78.30
38848;DHT22;24602;44.780;20.408;2022-09-12T15:54:43;23.60;78.20
38848;DHT22;24602;44.780;20.408;2022-09-12T15:57:12;23.50;78.60
38848;DHT22;24602;44.780;20.408;2022-09-12T15:59:43;23.30;79.00
38848;DHT22;24602;44.780;20.408;2022-09-12T16:02:13;23.10;81.30
38848;DHT22;24602;44.780;20.408;2022-09-12T16:04:44;22.90;82.70
38848;DHT22;24602;44.780;20.408;2022-09-12T16:07:14;22.90;84.60
38848;DHT22;24602;44.780;20.408;2022-09-12T16:09:45;22.70;85.30
38848;DHT22;24602;44.780;20.408;2022-09-12T16:12:13;22.50;85.70
38848;DHT22;24602;44.780;20.408;2022-09-12T16:14:46;22.40;86.40
38848;DHT22;24602;44.780;20.408;2022-09-12T16:17:14;22.50;85.50
38848;DHT22;24602;44.780;20.408;2022-09-12T16:20:06;22.50;84.80
38848;DHT22;24602;44.780;20.408;2022-09-12T16:22:37;22.60;85.40
38848;DHT22;24602;44.780;20.408;2022-09-12T16:25:29;22.80;85.30
38848;DHT22;24602;44.780;20.408;2022-09-12T16:28:19;22.90;85.00
38848;DHT22;24602;44.780;20.408;2022-09-12T16:31:04;22.90;85.40
38848;DHT22;24602;44.780;20.408;2022-09-12T16:33:37;22.70;86.30
38848;DHT22;24602;44.780;20.408;2022-09-12T16:36:19;22.50;87.20
38848;DHT22;24602;44.780;20.408;2022-09-12T16:38:53;22.20;88.70
38848;DHT22;24602;44.780;20.408;2022-09-12T16:41:22;22.00;89.90
38848;DHT22;24602;44.780;20.408;2022-09-12T16:43:53;21.90;90.40
38848;DHT22;24602;44.780;20.408;2022-09-12T16:46:43;21.80;91.50
38848;DHT22;24602;44.780;20.408;2022-09-12T16:49:32;21.60;94.10
38848;DHT22;24602;44.780;20.408;2022-09-12T16:52:03;21.50;96.20
38848;DHT22;24602;44.780;20.408;2022-09-12T16:54:35;21.30;97.70
38848;DHT22;24602;44.780;20.408;2022-09-12T16:57:07;21.30;98.80
38848;DHT22;24602;44.780;20.408;2022-09-12T16:59:42;21.20;99.90
38848;DHT22;24602;44.780;20.408;2022-09-12T17:02:14;21.10;99.90
38848;DHT22;24602;44.780;20.408;2022-09-12T17:04:44;21.10;99.90
38848;DHT22;24602;44.780;20.408;2022-09-12T17:07:14;21.10;99.90
38848;DHT22;24602;44.780;20.408;2022-09-12T17:09:47;21.00;99.90
38848;DHT22;24602;44.780;20.408;2022-09-12T17:12:16;20.90;99.90
38848;DHT22;24602;44.780;20.408;2022-09-12T17:14:46;20.90;99.90
38848;DHT22;24602;44.780;20.408;2022-09-12T17:17:17;20.80;99.90
38848;DHT22;24602;44.780;20.408;2022-09-12T17:19:48;20.80;99.90
38848;DHT22;24602;44.780;20.408;2022-09-12T17:22:16;20.70;99.90
38848;DHT22;24602;44.780;20.408;2022-09-12T17:24:47;20.70;99.90
38848;DHT22;24602;44.780;20.408;2022-09-12T17:27:18;20.70;99.90
38848;DHT22;24602;44.780;20.408;2022-09-12T17:29:51;20.60;99.90
38848;DHT22;24602;44.780;20.408;2022-09-12T17:32:22;20.50;99.90
38848;DHT22;24602;44.780;20.408;2022-09-12T17:34:56;20.50;99.90
38848;DHT22;24602;44.780;20.408;2022-09-12T17:37:25;20.50;99.90
38848;DHT22;24602;44.780;20.408;2022-09-12T17:39:55;20.50;99.90
38848;DHT22;24602;44.780;20.408;2022-09-12T17:42:26;20.40;99.90
38848;DHT22;24602;44.780;20.408;2022-09-12T17:44:56;20.50;99.90
38848;DHT22;24602;44.780;20.408;2022-09-12T17:47:30;20.40;99.90
38848;DHT22;24602;44.780;20.408;2022-09-12T17:50:01;20.40;99.90
38848;DHT22;24602;44.780;20.408;2022-09-12T17:52:55;20.30;99.90
38848;DHT22;24602;44.780;20.408;2022-09-12T17:55:27;20.30;99.90
38848;DHT22;24602;44.780;20.408;2022-09-12T17:58:02;20.30;99.90
38848;DHT22;24602;44.780;20.408;2022-09-12T18:00:33;20.30;99.90
38848;DHT22;24602;44.780;20.408;2022-09-12T18:03:24;20.30;99.90
38848;DHT22;24602;44.780;20.408;2022-09-12T18:05:56;20.30;99.90
38848;DHT22;24602;44.780;20.408;2022-09-12T18:08:24;20.30;99.90
38848;DHT22;24602;44.780;20.408;2022-09-12T18:10:53;20.30;99.90
38848;DHT22;24602;44.780;20.408;2022-09-12T18:13:38;20.30;99.90
38848;DHT22;24602;44.780;20.408;2022-09-12T18:16:11;20.30;99.90